createdAt,value
2023-12-04T00:01:21.596Z,11.23
2023-12-04T00:03:48.771Z,12.05
2023-12-04T00:06:15.975Z,10.57
2023-12-04T00:08:42.855Z,11.43
2023-12-04T00:11:10.082Z,12.20
2023-12-04T00:13:37.312Z,11.82
2023-12-04T00:16:04.805Z,10.45
2023-12-04T00:18:32.053Z,12.27
2023-12-04T00:20:58.964Z,11.88
2023-12-04T00:23:25.870Z,8.75
2023-12-04T00:25:52.708Z,12.88
2023-12-04T00:28:19.566Z,9.48
2023-12-04T00:30:46.521Z,11.88
2023-12-04T00:33:13.684Z,12.85
2023-12-04T00:35:40.665Z,13.05
2023-12-04T00:38:07.876Z,13.90
2023-12-04T00:40:35.147Z,12.50
2023-12-04T00:43:02.085Z,11.95
2023-12-04T00:45:29.436Z,8.98
2023-12-04T00:47:56.624Z,8.40
2023-12-04T00:50:23.502Z,11.88
2023-12-04T00:52:50.373Z,11.30
2023-12-04T00:55:17.281Z,12.93
2023-12-04T00:57:44.234Z,12.82
2023-12-04T01:00:11.820Z,12.75
2023-12-04T01:02:38.875Z,13.25
2023-12-04T01:05:05.897Z,15.98
2023-12-04T01:07:32.774Z,12.10
2023-12-04T01:09:59.942Z,15.07
2023-12-04T01:12:27.820Z,11.70
2023-12-04T01:14:54.925Z,10.88
2023-12-04T01:17:21.909Z,10.98
2023-12-04T01:19:48.777Z,13.10
2023-12-04T01:22:15.979Z,13.70
2023-12-04T01:24:42.930Z,13.60
2023-12-04T01:27:09.855Z,14.88
2023-12-04T01:29:36.731Z,15.23
2023-12-04T01:32:03.907Z,12.15
2023-12-04T01:34:30.730Z,12.20
2023-12-04T01:36:57.631Z,11.68
2023-12-04T01:39:24.551Z,10.23
2023-12-04T01:41:51.658Z,13.95
2023-12-04T01:44:19.184Z,14.38
2023-12-04T01:46:46.568Z,14.43
2023-12-04T01:49:13.544Z,12.35
2023-12-04T01:51:40.896Z,12.23
2023-12-04T01:54:08.558Z,9.85
2023-12-04T01:56:37.436Z,14.65
2023-12-04T01:59:05.397Z,13.55
2023-12-04T02:01:32.445Z,15.52
2023-12-04T02:04:02.187Z,15.43
2023-12-04T02:06:29.189Z,13.40
2023-12-04T02:08:57.753Z,14.23
2023-12-04T02:11:24.896Z,15.35
2023-12-04T02:13:51.909Z,14.90
2023-12-04T02:16:21.128Z,13.88
2023-12-04T02:18:48.408Z,14.77
2023-12-04T02:21:15.318Z,13.02
2023-12-04T02:23:42.188Z,12.80
2023-12-04T02:26:18.032Z,11.95
2023-12-04T02:28:52.327Z,16.40
2023-12-04T02:31:20.547Z,15.50
2023-12-04T02:33:50.924Z,14.88
2023-12-04T02:38:45.526Z,15.48
2023-12-04T02:41:12.617Z,15.30
2023-12-04T02:43:39.491Z,16.27
2023-12-04T02:46:06.685Z,12.73
2023-12-04T02:48:34.127Z,17.42
2023-12-04T02:51:01.079Z,16.95
2023-12-04T02:53:27.926Z,14.73
2023-12-04T02:55:54.883Z,15.18
2023-12-04T02:58:21.748Z,16.08
2023-12-04T03:00:48.707Z,13.85
2023-12-04T03:03:15.652Z,16.50
2023-12-04T03:05:43.063Z,17.70
2023-12-04T03:08:09.900Z,18.55
2023-12-04T03:10:36.979Z,16.95
2023-12-04T03:13:04.122Z,14.27
2023-12-04T03:15:31.464Z,17.75
2023-12-04T03:17:59.683Z,15.68
2023-12-04T03:20:26.609Z,17.15
2023-12-04T03:22:53.552Z,17.80
2023-12-04T03:25:20.575Z,17.17
2023-12-04T03:27:47.455Z,18.30
2023-12-04T03:30:14.855Z,12.75
2023-12-04T03:32:41.811Z,16.20
2023-12-04T03:35:08.866Z,16.55
2023-12-04T03:37:35.789Z,14.88
2023-12-04T03:40:02.885Z,16.33
2023-12-04T03:42:30.054Z,15.25
2023-12-04T03:44:57.608Z,18.52
2023-12-04T03:47:24.916Z,18.33
2023-12-04T03:49:52.613Z,17.63
2023-12-04T03:52:19.544Z,20.10
2023-12-04T03:54:47.056Z,17.48
2023-12-04T03:57:14.126Z,18.40
2023-12-04T03:59:41.068Z,16.50
2023-12-04T04:02:07.975Z,17.75
2023-12-04T04:04:34.954Z,18.00
2023-12-04T04:07:02.145Z,15.35
2023-12-04T04:09:29.181Z,16.35
2023-12-04T04:11:56.257Z,17.48
2023-12-04T04:14:24.588Z,18.38
2023-12-04T04:16:51.614Z,18.17
2023-12-04T04:19:18.606Z,16.23
2023-12-04T04:21:45.582Z,17.85
2023-12-04T04:24:12.579Z,16.10
2023-12-04T04:26:39.498Z,15.63
2023-12-04T04:29:06.504Z,14.18
2023-12-04T04:31:33.407Z,14.43
2023-12-04T04:34:00.415Z,16.10
2023-12-04T04:36:27.587Z,14.27
2023-12-04T04:38:54.928Z,16.35
2023-12-04T04:41:21.803Z,9.88
2023-12-04T04:43:48.949Z,16.80
2023-12-04T04:46:16.145Z,16.77
2023-12-04T04:48:43.200Z,17.80
2023-12-04T04:51:10.126Z,17.75
2023-12-04T04:53:37.180Z,18.10
2023-12-04T04:56:04.481Z,16.10
2023-12-04T04:58:31.363Z,15.07
2023-12-04T05:00:58.470Z,14.32
2023-12-04T05:03:25.572Z,15.43
2023-12-04T05:05:52.655Z,15.32
2023-12-04T05:08:19.756Z,16.23
2023-12-04T05:10:46.776Z,18.30
2023-12-04T05:13:13.774Z,15.27
2023-12-04T05:15:40.842Z,17.90
2023-12-04T05:18:07.834Z,15.90
2023-12-04T05:20:34.728Z,14.10
2023-12-04T05:23:02.324Z,14.93
2023-12-04T05:25:34.178Z,11.70
2023-12-04T05:28:05.603Z,12.55
2023-12-04T05:30:32.699Z,15.02
2023-12-04T05:32:59.806Z,16.25
2023-12-04T05:35:26.799Z,17.13
2023-12-04T05:37:53.635Z,14.77
2023-12-04T05:40:20.552Z,15.32
2023-12-04T05:42:47.517Z,13.82
2023-12-04T05:45:14.490Z,15.23
2023-12-04T05:47:41.397Z,16.15
2023-12-04T05:50:08.903Z,13.60
2023-12-04T05:52:35.869Z,13.40
2023-12-04T05:55:02.839Z,16.27
2023-12-04T05:57:29.797Z,15.05
2023-12-04T05:59:56.790Z,14.95
2023-12-04T06:02:23.718Z,14.25
2023-12-04T06:04:50.652Z,15.52
2023-12-04T06:07:18.452Z,15.48
2023-12-04T06:09:45.525Z,15.32
2023-12-04T06:12:12.503Z,10.55
2023-12-04T06:14:39.523Z,10.85
2023-12-04T06:17:08.185Z,15.20
2023-12-04T06:19:35.175Z,15.77
2023-12-04T06:22:02.246Z,16.63
2023-12-04T06:24:29.483Z,14.85
2023-12-04T06:26:56.674Z,14.15
2023-12-04T06:29:23.924Z,14.90
2023-12-04T06:31:51.196Z,14.18
2023-12-04T06:34:21.862Z,12.30
2023-12-04T06:36:49.209Z,15.27
2023-12-04T06:39:18.415Z,13.68
2023-12-04T06:41:48.002Z,12.95
2023-12-04T06:44:15.331Z,12.52
2023-12-04T06:46:46.992Z,13.45
2023-12-04T06:49:17.569Z,9.77
2023-12-04T06:51:44.592Z,14.50
2023-12-04T06:54:13.193Z,13.20
2023-12-04T06:56:40.044Z,11.95
2023-12-04T06:59:07.001Z,9.30
2023-12-04T07:01:33.962Z,12.57
2023-12-04T07:04:01.016Z,11.07
2023-12-04T07:06:27.978Z,11.60
2023-12-04T07:08:54.883Z,11.40
2023-12-04T07:11:22.037Z,13.18
2023-12-04T07:13:48.969Z,12.93
2023-12-04T07:16:15.853Z,14.27
2023-12-04T07:18:42.777Z,13.70
2023-12-04T07:21:09.688Z,8.95
2023-12-04T07:23:36.634Z,10.23
2023-12-04T07:26:03.775Z,12.23
2023-12-04T07:28:30.885Z,13.48
2023-12-04T07:30:57.936Z,12.73
2023-12-04T07:33:25.139Z,13.50
2023-12-04T07:35:53.217Z,12.60
2023-12-04T07:38:20.203Z,10.93
2023-12-04T07:40:47.356Z,11.15
2023-12-04T07:43:15.695Z,11.63
2023-12-04T07:45:43.029Z,11.25
2023-12-04T07:48:10.035Z,11.82
2023-12-04T07:50:39.029Z,12.18
2023-12-04T07:53:06.954Z,11.32
2023-12-04T07:55:33.872Z,11.30
2023-12-04T07:58:00.933Z,10.75
2023-12-04T08:00:28.071Z,12.60
2023-12-04T08:02:54.921Z,12.20
2023-12-04T08:05:21.820Z,11.32
2023-12-04T08:07:48.911Z,12.95
2023-12-04T08:10:16.134Z,10.50
2023-12-04T08:12:46.306Z,12.25
2023-12-04T08:15:13.401Z,11.20
2023-12-04T08:17:40.612Z,11.38
2023-12-04T08:20:08.288Z,11.50
2023-12-04T08:22:35.239Z,10.77
2023-12-04T08:25:02.177Z,11.40
2023-12-04T08:27:29.083Z,10.15
2023-12-04T08:29:56.157Z,11.35
2023-12-04T08:32:23.872Z,11.32
2023-12-04T08:34:50.826Z,10.20
2023-12-04T08:37:17.833Z,11.57
2023-12-04T08:39:44.748Z,9.40
2023-12-04T08:42:17.941Z,12.70
2023-12-04T08:44:50.487Z,10.52
2023-12-04T08:47:17.311Z,12.63
2023-12-04T08:49:49.025Z,10.73
2023-12-04T08:52:16.743Z,10.73
2023-12-04T08:54:43.712Z,11.90
2023-12-04T08:57:11.201Z,9.93
2023-12-04T08:59:38.181Z,9.90
2023-12-04T09:02:05.894Z,12.15
2023-12-04T09:04:33.793Z,10.45
2023-12-04T09:09:31.491Z,10.60
2023-12-04T09:11:59.557Z,10.77
2023-12-04T09:14:26.524Z,10.88
2023-12-04T09:16:54.207Z,10.30
2023-12-04T09:19:21.203Z,9.95
2023-12-04T09:21:51.215Z,12.40
2023-12-04T09:26:46.100Z,9.43
2023-12-04T09:29:13.819Z,9.00
2023-12-04T09:31:40.667Z,10.15
2023-12-04T09:34:07.582Z,9.07
2023-12-04T09:36:34.469Z,9.20
2023-12-04T09:39:01.497Z,9.43
2023-12-04T09:41:28.950Z,10.27
2023-12-04T09:43:56.295Z,10.80
2023-12-04T09:46:23.426Z,10.30
2023-12-04T09:48:52.607Z,10.73
2023-12-04T09:51:21.975Z,10.43
2023-12-04T09:53:50.383Z,9.30
2023-12-04T09:56:19.241Z,10.65
2023-12-04T09:58:46.697Z,9.13
2023-12-04T10:01:14.210Z,9.27
2023-12-04T10:03:42.538Z,10.45
2023-12-04T10:06:09.770Z,9.50
2023-12-04T10:08:36.845Z,9.68
2023-12-04T10:11:03.893Z,9.85
2023-12-04T10:13:56.455Z,9.00
2023-12-04T10:16:33.497Z,7.95
2023-12-04T10:19:21.136Z,7.95
2023-12-04T10:21:50.030Z,8.55
2023-12-04T10:24:29.186Z,8.85
2023-12-04T10:26:56.367Z,7.93
2023-12-04T10:29:24.590Z,8.73
2023-12-04T10:31:53.995Z,9.40
2023-12-04T10:34:21.730Z,10.38
2023-12-04T10:36:48.708Z,8.63
2023-12-04T10:39:15.759Z,8.20
2023-12-04T10:41:42.693Z,9.15
2023-12-04T10:44:11.110Z,7.20
2023-12-04T10:46:39.942Z,10.18
2023-12-04T10:49:07.467Z,8.57
2023-12-04T10:51:35.835Z,8.85
2023-12-04T10:54:06.654Z,7.03
2023-12-04T10:56:41.874Z,10.52
2023-12-04T10:59:19.777Z,8.98
2023-12-04T11:01:48.825Z,8.57
2023-12-04T11:04:21.870Z,8.18
2023-12-04T11:06:53.841Z,9.15
2023-12-04T11:09:22.840Z,9.93
2023-12-04T11:11:52.952Z,8.60
2023-12-04T11:14:23.756Z,9.73
2023-12-04T11:16:55.757Z,8.98
2023-12-04T11:19:30.895Z,9.65
2023-12-04T11:22:00.753Z,9.60
2023-12-04T11:24:27.693Z,10.10
2023-12-04T11:26:55.437Z,9.27
2023-12-04T11:29:24.113Z,9.52
2023-12-04T11:31:50.929Z,9.65
2023-12-04T11:34:18.241Z,9.32
2023-12-04T11:36:46.376Z,9.50
2023-12-04T11:39:13.537Z,9.32
2023-12-04T11:41:42.753Z,8.57
2023-12-04T11:44:15.905Z,7.28
2023-12-04T11:47:04.687Z,7.57
2023-12-04T11:49:33.107Z,7.45
2023-12-04T11:52:02.761Z,8.50
2023-12-04T11:54:30.469Z,8.13
2023-12-04T11:57:10.005Z,8.27
2023-12-04T11:59:40.607Z,7.35
2023-12-04T12:02:12.749Z,7.78
2023-12-04T12:04:40.183Z,8.98
2023-12-04T12:07:07.843Z,10.07
2023-12-04T12:09:35.996Z,8.93
2023-12-04T12:12:03.874Z,8.38
2023-12-04T12:14:31.496Z,6.13
2023-12-04T12:17:02.798Z,8.48
2023-12-04T12:19:30.142Z,7.38
2023-12-04T12:21:57.778Z,8.95
2023-12-04T12:24:27.162Z,7.80
2023-12-04T12:26:56.442Z,8.32
2023-12-04T12:29:23.311Z,8.50
2023-12-04T12:31:51.433Z,8.45
2023-12-04T12:34:19.241Z,9.00
2023-12-04T12:36:46.269Z,7.68
2023-12-04T12:39:13.819Z,6.45
2023-12-04T12:41:40.799Z,8.95
2023-12-04T12:44:07.760Z,7.85
2023-12-04T12:46:35.055Z,7.88
2023-12-04T12:49:02.202Z,8.10
2023-12-04T12:51:29.880Z,8.15
2023-12-04T12:53:58.487Z,8.13
2023-12-04T12:56:26.863Z,9.32
2023-12-04T12:58:55.079Z,7.85
2023-12-04T13:01:28.814Z,7.38
2023-12-04T13:03:58.231Z,8.15
2023-12-04T13:06:25.351Z,6.78
2023-12-04T13:08:52.944Z,7.68
2023-12-04T13:11:20.080Z,8.30
2023-12-04T13:13:47.035Z,7.97
2023-12-04T13:16:13.907Z,7.50
2023-12-04T13:18:40.772Z,6.07
2023-12-04T13:21:11.814Z,8.55
2023-12-04T13:23:38.902Z,8.02
2023-12-04T13:26:05.862Z,8.10
2023-12-04T13:28:40.217Z,7.10
2023-12-04T13:31:11.150Z,8.55
2023-12-04T13:33:38.238Z,7.75
2023-12-04T13:36:06.604Z,8.52
2023-12-04T13:38:37.601Z,7.68
2023-12-04T13:41:40.717Z,7.75
2023-12-04T13:44:08.313Z,7.53
2023-12-04T13:46:35.346Z,8.50
2023-12-04T13:49:02.379Z,8.15
2023-12-04T13:51:29.401Z,6.90
2023-12-04T13:54:03.558Z,8.20
2023-12-04T13:56:48.967Z,8.07
2023-12-04T13:59:21.414Z,7.72
2023-12-04T14:01:51.592Z,7.95
2023-12-04T14:04:19.912Z,7.90
2023-12-04T14:06:47.995Z,8.45
2023-12-04T14:09:18.417Z,8.13
2023-12-04T14:11:45.988Z,8.30
2023-12-04T14:14:16.229Z,8.05
2023-12-04T14:16:43.511Z,8.20
2023-12-04T14:19:10.781Z,8.93
2023-12-04T14:21:37.997Z,7.55
2023-12-04T14:24:05.137Z,7.65
2023-12-04T14:26:32.459Z,7.72
2023-12-04T14:29:02.382Z,6.35
2023-12-04T14:33:56.589Z,8.60
2023-12-04T14:36:23.422Z,8.85
2023-12-04T14:38:50.282Z,7.95
2023-12-04T14:41:17.274Z,8.75
2023-12-04T14:43:44.220Z,7.85
2023-12-04T14:46:11.531Z,8.27
2023-12-04T14:48:41.118Z,8.35
2023-12-04T14:51:09.721Z,7.75
2023-12-04T14:53:52.331Z,7.63
2023-12-04T14:56:37.609Z,8.00
2023-12-04T14:59:07.597Z,7.72
2023-12-04T15:01:50.303Z,7.60
2023-12-04T15:04:35.911Z,8.23
2023-12-04T15:07:08.860Z,7.60
2023-12-04T15:09:54.419Z,8.10
2023-12-04T15:12:40.071Z,5.85
2023-12-04T15:15:36.330Z,8.68
2023-12-04T15:18:22.268Z,8.20
2023-12-04T15:20:49.176Z,7.25
2023-12-04T15:23:16.027Z,7.05
2023-12-04T15:25:42.872Z,7.90
2023-12-04T15:28:09.760Z,8.07
2023-12-04T15:30:36.886Z,6.35
2023-12-04T15:33:04.018Z,7.43
2023-12-04T15:35:30.875Z,8.57
2023-12-04T15:37:57.764Z,8.57
2023-12-04T15:40:24.621Z,8.77
2023-12-04T15:42:52.422Z,7.95
2023-12-04T15:45:19.418Z,8.00
2023-12-04T15:47:46.492Z,7.93
2023-12-04T15:50:13.683Z,7.47
2023-12-04T15:52:42.309Z,7.57
2023-12-04T15:55:13.647Z,8.43
2023-12-04T15:57:40.953Z,7.97
2023-12-04T16:00:11.102Z,8.38
2023-12-04T16:02:41.674Z,6.65
2023-12-04T16:05:12.718Z,7.03
2023-12-04T16:07:40.041Z,7.50
2023-12-04T16:10:09.982Z,8.18
2023-12-04T16:12:37.941Z,8.25
2023-12-04T16:15:08.769Z,9.10
2023-12-04T16:17:36.496Z,7.63
2023-12-04T16:20:12.109Z,8.77
2023-12-04T16:22:42.704Z,7.88
2023-12-04T16:25:19.450Z,7.72
2023-12-04T16:27:47.232Z,7.90
2023-12-04T16:30:14.715Z,7.30
2023-12-04T16:32:41.850Z,8.65
2023-12-04T16:35:10.187Z,7.93
2023-12-04T16:37:38.302Z,8.43
2023-12-04T16:40:05.969Z,8.05
2023-12-04T16:42:33.295Z,7.05
2023-12-04T16:45:00.336Z,8.73
2023-12-04T16:47:27.614Z,8.23
2023-12-04T16:49:54.756Z,7.60
2023-12-04T16:52:21.932Z,7.75
2023-12-04T16:54:52.734Z,5.65
2023-12-04T16:57:19.857Z,8.10
2023-12-04T16:59:47.467Z,7.55
2023-12-04T17:02:14.576Z,7.28
2023-12-04T17:04:41.757Z,7.38
2023-12-04T17:07:08.849Z,8.07
2023-12-04T17:09:38.293Z,7.30
2023-12-04T17:12:06.484Z,7.75
2023-12-04T17:14:34.235Z,6.75
2023-12-04T17:17:03.869Z,7.55
2023-12-04T17:19:33.018Z,7.70
2023-12-04T17:22:00.666Z,8.13
2023-12-04T17:24:27.924Z,7.65
2023-12-04T17:26:54.851Z,7.28
2023-12-04T17:29:24.440Z,7.57
2023-12-04T17:31:51.922Z,8.25
2023-12-04T17:34:19.098Z,7.15
2023-12-04T17:36:47.070Z,7.20
2023-12-04T17:39:18.476Z,6.90
2023-12-04T17:41:48.581Z,7.03
2023-12-04T17:44:15.473Z,6.80
2023-12-04T17:46:42.297Z,7.07
2023-12-04T17:49:09.376Z,7.40
2023-12-04T17:51:37.922Z,7.75
2023-12-04T17:54:05.465Z,7.82
2023-12-04T17:56:34.982Z,7.80
2023-12-04T17:59:02.942Z,7.38
2023-12-04T18:01:30.351Z,7.05
2023-12-04T18:03:57.810Z,7.80
2023-12-04T18:06:32.415Z,8.13
2023-12-04T18:08:59.290Z,7.45
2023-12-04T18:11:26.326Z,7.15
2023-12-04T18:13:54.213Z,6.57
2023-12-04T18:16:22.104Z,6.63
2023-12-04T18:18:50.121Z,6.35
2023-12-04T18:21:17.840Z,7.43
2023-12-04T18:23:44.922Z,6.97
2023-12-04T18:26:12.606Z,7.68
2023-12-04T18:28:40.741Z,7.63
2023-12-04T18:31:08.678Z,8.43
2023-12-04T18:33:37.162Z,8.32
2023-12-04T18:36:06.562Z,7.47
2023-12-04T18:38:40.621Z,7.93
2023-12-04T18:41:07.893Z,8.20
2023-12-04T18:43:35.166Z,7.72
2023-12-04T18:46:02.412Z,7.45
2023-12-04T18:48:33.246Z,6.95
2023-12-04T18:51:00.676Z,7.35
2023-12-04T18:53:28.125Z,7.35
2023-12-04T18:55:55.947Z,8.88
2023-12-04T18:58:23.293Z,7.55
2023-12-04T19:00:50.969Z,8.02
2023-12-04T19:03:18.021Z,7.55
2023-12-04T19:05:45.107Z,8.15
2023-12-04T19:08:12.194Z,6.95
2023-12-04T19:10:38.985Z,7.68
2023-12-04T19:13:05.837Z,7.80
2023-12-04T19:15:34.763Z,8.73
2023-12-04T19:18:01.852Z,8.07
2023-12-04T19:20:30.617Z,8.55
2023-12-04T19:22:58.156Z,7.80
2023-12-04T19:25:29.863Z,7.63
2023-12-04T19:28:00.664Z,8.27
2023-12-04T19:30:34.219Z,7.13
2023-12-04T19:33:02.653Z,8.48
2023-12-04T19:35:30.096Z,8.23
2023-12-04T19:37:57.229Z,7.55
2023-12-04T19:40:24.118Z,7.82
2023-12-04T19:42:51.074Z,7.60
2023-12-04T19:45:18.123Z,7.75
2023-12-04T19:47:45.222Z,7.45
2023-12-04T19:50:12.808Z,7.95
2023-12-04T19:52:40.538Z,8.10
2023-12-04T19:55:08.069Z,7.93
2023-12-04T19:57:35.067Z,8.63
2023-12-04T20:00:04.310Z,7.15
2023-12-04T20:02:39.331Z,8.30
2023-12-04T20:05:07.278Z,7.10
2023-12-04T20:07:34.364Z,7.90
2023-12-04T20:10:01.364Z,7.32
2023-12-04T20:12:30.358Z,8.52
2023-12-04T20:14:57.452Z,7.57
2023-12-04T20:17:27.498Z,7.20
2023-12-04T20:22:21.943Z,7.00
2023-12-04T20:24:49.155Z,7.05
2023-12-04T20:27:16.214Z,6.75
2023-12-04T20:29:43.054Z,7.22
2023-12-04T20:32:10.594Z,6.88
2023-12-04T20:34:38.272Z,8.35
2023-12-04T20:37:06.054Z,7.78
2023-12-04T20:39:33.445Z,5.68
2023-12-04T20:42:00.356Z,7.53
2023-12-04T20:44:27.710Z,8.00
2023-12-04T20:46:54.837Z,7.28
2023-12-04T20:49:25.585Z,6.80
2023-12-04T20:51:53.305Z,7.65
2023-12-04T20:54:20.204Z,7.97
2023-12-04T20:56:47.113Z,7.20
2023-12-04T20:59:13.984Z,11.02
2023-12-04T21:01:40.863Z,7.35
2023-12-04T21:04:08.828Z,6.88
2023-12-04T21:06:38.687Z,7.30
2023-12-04T21:09:06.176Z,7.80
2023-12-04T21:11:33.069Z,7.05
2023-12-04T21:14:00.317Z,7.63
2023-12-04T21:16:27.325Z,6.90
2023-12-04T21:18:54.470Z,6.68
2023-12-04T21:21:21.849Z,6.20
2023-12-04T21:23:48.807Z,7.40
2023-12-04T21:26:15.809Z,7.70
2023-12-04T21:28:42.962Z,7.60
2023-12-04T21:31:10.085Z,7.00
2023-12-04T21:33:39.190Z,7.97
2023-12-04T21:36:08.049Z,7.53
2023-12-04T21:38:35.043Z,7.68
2023-12-04T21:41:01.937Z,7.82
2023-12-04T21:43:29.462Z,7.50
2023-12-04T21:45:56.565Z,7.45
2023-12-04T21:48:24.863Z,8.30
2023-12-04T21:50:51.874Z,7.28
2023-12-04T21:53:18.723Z,8.05
2023-12-04T21:55:45.662Z,7.03
2023-12-04T21:58:12.983Z,6.55
2023-12-04T22:00:39.856Z,7.00
2023-12-04T22:03:06.918Z,8.93
2023-12-04T22:05:33.867Z,7.20
2023-12-04T22:08:00.781Z,5.93
2023-12-04T22:10:27.660Z,8.27
2023-12-04T22:12:54.801Z,8.15
2023-12-04T22:15:22.200Z,7.90
2023-12-04T22:17:50.759Z,9.93
2023-12-04T22:20:17.667Z,6.47
2023-12-04T22:22:44.491Z,7.88
2023-12-04T22:25:14.830Z,8.82
2023-12-04T22:30:12.884Z,7.32
2023-12-04T22:32:39.788Z,8.63
2023-12-04T22:35:06.924Z,9.48
2023-12-04T22:37:33.781Z,8.65
2023-12-04T22:40:01.147Z,7.25
2023-12-04T22:42:28.601Z,7.78
2023-12-04T22:44:55.655Z,9.98
2023-12-04T22:47:22.550Z,10.50
2023-12-04T22:49:49.682Z,8.98
2023-12-04T22:52:16.621Z,9.38
2023-12-04T22:54:43.540Z,8.82
2023-12-04T22:57:11.098Z,9.73
2023-12-04T22:59:38.003Z,9.10
2023-12-04T23:02:05.261Z,9.80
2023-12-04T23:04:33.154Z,9.10
2023-12-04T23:07:00.321Z,10.30
2023-12-04T23:09:27.429Z,9.40
2023-12-04T23:11:54.382Z,10.30
2023-12-04T23:14:21.250Z,10.27
2023-12-04T23:16:48.103Z,8.80
2023-12-04T23:19:15.105Z,8.27
2023-12-04T23:21:42.052Z,9.75
2023-12-04T23:24:09.019Z,8.38
2023-12-04T23:26:35.955Z,8.95
2023-12-04T23:29:05.661Z,10.18
2023-12-04T23:31:33.021Z,8.27
2023-12-04T23:34:00.364Z,9.50
2023-12-04T23:36:27.573Z,10.65
2023-12-04T23:38:54.521Z,10.85
2023-12-04T23:41:22.230Z,10.10
2023-12-04T23:43:49.130Z,12.05
2023-12-04T23:46:15.974Z,10.77
2023-12-04T23:48:42.949Z,10.48
2023-12-04T23:51:09.867Z,9.43
2023-12-04T23:53:36.948Z,12.30
2023-12-04T23:56:04.048Z,11.30
2023-12-04T23:58:31.080Z,13.27
